Time;durP1;ratioP1;P1;durP2;ratioP2;P2;SDS_P1;SDS_P2;PMS_P1;PMS_P2;Temp;Humidity;BMP_temperature;BMP_pressure;BME280_temperature;BME280_humidity;BME280_pressure;Samples;Min_cycle;Max_cycle;Signal;HPM_P1;HPM_P2
2021/06/15 00:01:48;;;;;;;5.85;3.72;;;;;;;;;;143745;612;47020;-55
2021/06/15 00:04:15;;;;;;;3.60;3.30;;;;;;;;;;143747;595;46010;-55
2021/06/15 00:06:43;;;;;;;5.35;3.78;;;;;;;;;;143742;594;46021;-55
2021/06/15 00:09:10;;;;;;;6.82;4.15;;;;;;;;;;143752;731;46020;-55
2021/06/15 00:11:37;;;;;;;4.85;3.60;;;;;;;;;;143746;668;47022;-55
2021/06/15 00:14:05;;;;;;;4.60;3.40;;;;;;;;;;143747;583;46011;-55
2021/06/15 00:16:32;;;;;;;6.30;3.65;;;;;;;;;;143748;566;45020;-55
2021/06/15 00:18:59;;;;;;;5.28;3.70;;;;;;;;;;143751;587;46020;-55
2021/06/15 00:21:26;;;;;;;4.60;3.17;;;;;;;;;;143747;592;47021;-55
2021/06/15 00:23:53;;;;;;;3.62;3.30;;;;;;;;;;143746;577;46021;-55
2021/06/15 00:26:20;;;;;;;6.45;3.50;;;;;;;;;;143746;569;45911;-55
2021/06/15 00:28:47;;;;;;;6.05;3.55;;;;;;;;;;143751;581;45021;-55
2021/06/15 00:31:14;;;;;;;4.55;3.20;;;;;;;;;;143739;570;47020;-55
2021/06/15 00:33:41;;;;;;;5.57;3.22;;;;;;;;;;143747;586;46022;-55
2021/06/15 00:36:08;;;;;;;7.68;3.90;;;;;;;;;;143747;737;45021;-56
2021/06/15 00:38:35;;;;;;;5.18;3.30;;;;;;;;;;143751;629;45021;-55
2021/06/15 00:41:02;;;;;;;4.55;3.62;;;;;;;;;;143746;583;47020;-55
2021/06/15 00:43:29;;;;;;;6.15;3.60;;;;;;;;;;143748;593;46021;-55
2021/06/15 00:45:56;;;;;;;5.60;3.30;;;;;;;;;;143747;574;45021;-55
2021/06/15 00:48:42;;;;;;;5.07;3.35;;;;;;;;;;143751;642;46020;-55
2021/06/15 00:51:10;;;;;;;4.62;3.42;;;;;;;;;;143748;579;47021;-55
2021/06/15 00:53:38;;;;;;;3.55;3.22;;;;;;;;;;143744;694;47010;-55
2021/06/15 00:56:05;;;;;;;4.20;3.25;;;;;;;;;;143742;564;45020;-55
2021/06/15 00:58:33;;;;;;;5.45;3.72;;;;;;;;;;143750;593;45021;-55
2021/06/15 01:01:00;;;;;;;6.60;3.60;;;;;;;;;;143746;647;47023;-55
2021/06/15 01:03:28;;;;;;;4.12;3.67;;;;;;;;;;143747;743;46010;-55
2021/06/15 01:05:57;;;;;;;7.90;3.72;;;;;;;;;;143749;604;45021;-55
2021/06/15 01:08:48;;;;;;;5.47;3.47;;;;;;;;;;143752;586;45020;-55
2021/06/15 01:11:55;;;;;;;6.12;3.97;;;;;;;;;;143746;587;47020;-55
2021/06/15 01:14:55;;;;;;;4.72;3.87;;;;;;;;;;143747;589;46011;-55
2021/06/15 01:17:35;;;;;;;7.07;3.83;;;;;;;;;;143748;634;45020;-55
2021/06/15 01:20:29;;;;;;;4.85;3.80;;;;;;;;;;143744;624;46020;-55
2021/06/15 01:23:44;;;;;;;6.20;3.80;;;;;;;;;;143740;598;47023;-55
2021/06/15 01:27:13;;;;;;;5.78;3.30;;;;;;;;;;143744;616;47020;-55
2021/06/15 01:29:43;;;;;;;5.43;3.42;;;;;;;;;;143746;606;45021;-55
2021/06/15 01:32:22;;;;;;;4.75;3.58;;;;;;;;;;143751;636;46020;-55
2021/06/15 01:34:51;;;;;;;7.47;4.18;;;;;;;;;;143744;581;47022;-55
2021/06/15 01:37:54;;;;;;;4.57;3.60;;;;;;;;;;143748;643;46010;-56
2021/06/15 01:40:27;;;;;;;7.22;3.78;;;;;;;;;;143745;578;45910;-55
2021/06/15 01:42:58;;;;;;;7.05;4.10;;;;;;;;;;143751;599;45021;-55
2021/06/15 01:45:36;;;;;;;6.70;3.70;;;;;;;;;;143746;601;47020;-55
2021/06/15 01:48:34;;;;;;;4.80;3.25;;;;;;;;;;143746;564;47010;-55
2021/06/15 01:51:05;;;;;;;7.07;3.85;;;;;;;;;;143741;617;45910;-55
2021/06/15 01:53:35;;;;;;;4.30;3.25;;;;;;;;;;143750;627;46010;-55
2021/06/15 01:56:07;;;;;;;6.45;3.55;;;;;;;;;;143746;614;47020;-55
2021/06/15 01:58:35;;;;;;;4.22;3.20;;;;;;;;;;143746;598;46010;-55
2021/06/15 02:01:03;;;;;;;3.95;3.28;;;;;;;;;;143748;583;45021;-55
2021/06/15 02:03:32;;;;;;;4.55;3.30;;;;;;;;;;143752;587;45020;-55
2021/06/15 02:06:01;;;;;;;5.60;3.87;;;;;;;;;;143746;583;47022;-55
2021/06/15 02:08:43;;;;;;;5.10;3.62;;;;;;;;;;143748;633;46010;-55
2021/06/15 02:11:11;;;;;;;6.50;3.20;;;;;;;;;;143750;597;45020;-55
2021/06/15 02:13:45;;;;;;;8.50;3.78;;;;;;;;;;143751;575;45021;-55
2021/06/15 02:16:14;;;;;;;5.35;3.75;;;;;;;;;;143738;632;47049;-55
2021/06/15 02:18:45;;;;;;;7.07;3.90;;;;;;;;;;143747;569;46010;-55
2021/06/15 02:21:14;;;;;;;7.00;3.35;;;;;;;;;;143745;616;45912;-55
2021/06/15 02:23:45;;;;;;;3.85;3.15;;;;;;;;;;143750;580;46021;-55
2021/06/15 02:26:15;;;;;;;4.50;3.65;;;;;;;;;;143745;651;47020;-55
2021/06/15 02:28:43;;;;;;;4.30;3.25;;;;;;;;;;143747;662;46011;-55
2021/06/15 02:31:15;;;;;;;4.32;3.20;;;;;;;;;;143750;572;45020;-55
2021/06/15 02:33:49;;;;;;;3.67;3.20;;;;;;;;;;143749;621;46010;-55
2021/06/15 02:36:20;;;;;;;5.37;3.30;;;;;;;;;;143745;589;47022;-55
2021/06/15 02:38:55;;;;;;;4.00;3.20;;;;;;;;;;143747;602;46022;-55
2021/06/15 02:41:22;;;;;;;;;;;;;;;;;;143748;976;45020;-55
2021/06/15 02:43:51;;;;;;;4.97;3.40;;;;;;;;;;143757;578;45021;-55
2021/06/15 02:46:20;;;;;;;4.80;3.30;;;;;;;;;;143747;590;47020;-55
2021/06/15 02:48:52;;;;;;;10.63;3.85;;;;;;;;;;143747;563;46010;-55
2021/06/15 02:51:20;;;;;;;4.62;3.67;;;;;;;;;;143747;625;45036;-55
2021/06/15 02:53:59;;;;;;;6.68;3.72;;;;;;;;;;143750;579;46020;-55
2021/06/15 02:56:30;;;;;;;12.00;4.35;;;;;;;;;;143745;578;47022;-56
2021/06/15 02:58:57;;;;;;;7.75;4.00;;;;;;;;;;143745;640;47010;-56
2021/06/15 03:01:24;;;;;;;7.75;4.20;;;;;;;;;;143748;638;45020;-56
2021/06/15 03:03:51;;;;;;;3.95;3.17;;;;;;;;;;143751;585;45020;-56
2021/06/15 03:06:19;;;;;;;7.30;4.12;;;;;;;;;;143739;614;47021;-55
2021/06/15 03:08:46;;;;;;;4.40;2.97;;;;;;;;;;143747;589;46010;-56
2021/06/15 03:11:17;;;;;;;5.45;3.62;;;;;;;;;;143746;594;45020;-56
2021/06/15 03:13:53;;;;;;;9.98;3.72;;;;;;;;;;143752;587;46021;-56
2021/06/15 03:16:26;;;;;;;3.37;3.08;;;;;;;;;;143748;585;47020;-56
2021/06/15 03:19:17;;;;;;;5.93;3.28;;;;;;;;;;143746;599;47010;-56
2021/06/15 03:22:10;;;;;;;3.92;3.08;;;;;;;;;;143746;583;45909;-56
2021/06/15 03:24:43;;;;;;;3.87;3.45;;;;;;;;;;143752;640;45020;-56
2021/06/15 03:27:14;;;;;;;3.55;2.80;;;;;;;;;;143747;641;47021;-56
2021/06/15 03:29:43;;;;;;;4.93;3.35;;;;;;;;;;143745;635;46010;-56
2021/06/15 03:32:14;;;;;;;4.97;2.70;;;;;;;;;;143743;618;45020;-56
2021/06/15 03:34:53;;;;;;;3.45;2.83;;;;;;;;;;143752;595;45021;-57
2021/06/15 03:37:26;;;;;;;7.65;3.40;;;;;;;;;;143747;627;47020;-57
2021/06/15 03:39:56;;;;;;;4.57;3.15;;;;;;;;;;143746;577;47020;-57
2021/06/15 03:42:26;;;;;;;3.08;2.75;;;;;;;;;;143748;618;45021;-57
2021/06/15 03:44:57;;;;;;;3.58;2.90;;;;;;;;;;143751;564;46020;-56
2021/06/15 03:47:26;;;;;;;6.75;3.20;;;;;;;;;;143746;614;47020;-56
2021/06/15 03:49:55;;;;;;;3.42;2.78;;;;;;;;;;143746;698;46010;-56
2021/06/15 03:52:29;;;;;;;4.60;3.47;;;;;;;;;;143748;587;45021;-57
2021/06/15 03:54:57;;;;;;;6.00;3.33;;;;;;;;;;143749;763;45020;-57
2021/06/15 03:57:26;;;;;;;3.20;2.90;;;;;;;;;;143740;573;47021;-57
2021/06/15 03:59:55;;;;;;;5.95;3.65;;;;;;;;;;143744;580;47010;-56
2021/06/15 04:02:26;;;;;;;4.45;3.60;;;;;;;;;;143750;591;45020;-57
2021/06/15 04:04:54;;;;;;;6.90;3.50;;;;;;;;;;143750;591;47020;-57
2021/06/15 04:07:24;;;;;;;3.30;2.97;;;;;;;;;;143746;602;47020;-57
2021/06/15 04:09:52;;;;;;;4.30;3.10;;;;;;;;;;143747;593;46010;-57
2021/06/15 04:12:24;;;;;;;7.35;3.08;;;;;;;;;;143742;574;45910;-57
2021/06/15 04:14:52;;;;;;;4.30;3.08;;;;;;;;;;143744;644;46020;-57
2021/06/15 04:17:24;;;;;;;3.53;3.15;;;;;;;;;;143739;659;47022;-57
2021/06/15 04:19:57;;;;;;;5.35;3.12;;;;;;;;;;143740;594;46011;-57
2021/06/15 04:22:30;;;;;;;5.62;3.47;;;;;;;;;;143741;565;45020;-57
2021/06/15 04:24:59;;;;;;;8.93;3.65;;;;;;;;;;143745;631;45020;-57
2021/06/15 04:27:27;;;;;;;3.30;2.97;;;;;;;;;;143740;576;47021;-57
2021/06/15 04:29:55;;;;;;;5.53;3.42;;;;;;;;;;143740;617;47010;-58
2021/06/15 04:32:32;;;;;;;8.48;4.47;;;;;;;;;;143744;602;45020;-58
2021/06/15 04:35:03;;;;;;;6.80;4.25;;;;;;;;;;143744;573;45021;-58
2021/06/15 04:37:34;;;;;;;9.40;4.72;;;;;;;;;;143739;566;47020;-57
2021/06/15 04:40:17;;;;;;;7.60;4.30;;;;;;;;;;143737;636;47010;-57
2021/06/15 04:43:07;;;;;;;16.52;6.75;;;;;;;;;;143742;585;45021;-57
2021/06/15 04:45:43;;;;;;;7.55;4.53;;;;;;;;;;143744;564;46020;-57
2021/06/15 04:48:16;;;;;;;6.90;3.87;;;;;;;;;;143740;566;47022;-58
2021/06/15 04:50:44;;;;;;;7.45;3.70;;;;;;;;;;143740;583;46010;-58
2021/06/15 04:53:12;;;;;;;5.20;3.72;;;;;;;;;;143741;587;45910;-59
2021/06/15 04:55:40;;;;;;;7.43;3.60;;;;;;;;;;143743;607;46020;-59
2021/06/15 04:58:09;;;;;;;4.53;3.30;;;;;;;;;;143740;590;47021;-58
2021/06/15 05:00:38;;;;;;;4.50;3.20;;;;;;;;;;143739;572;47021;-58
2021/06/15 05:03:06;;;;;;;3.83;2.78;;;;;;;;;;143742;606;45020;-59
2021/06/15 05:05:34;;;;;;;4.87;3.40;;;;;;;;;;143744;571;45021;-59
2021/06/15 05:08:05;;;;;;;7.37;3.22;;;;;;;;;;143742;571;47020;-59
2021/06/15 05:10:33;;;;;;;5.90;3.30;;;;;;;;;;143740;564;46011;-58
2021/06/15 05:13:03;;;;;;;5.20;2.92;;;;;;;;;;143742;587;45021;-58
2021/06/15 05:15:31;;;;;;;8.30;2.75;;;;;;;;;;143744;582;46020;-58
2021/06/15 05:17:59;;;;;;;6.75;3.35;;;;;;;;;;143740;625;47020;-58
2021/06/15 05:20:27;;;;;;;8.10;3.50;;;;;;;;;;143739;822;47010;-58
2021/06/15 05:23:08;;;;;;;9.45;3.40;;;;;;;;;;143742;724;45020;-58
2021/06/15 05:25:35;;;;;;;5.32;2.85;;;;;;;;;;143744;768;45020;-59
2021/06/15 05:28:02;;;;;;;6.57;2.72;;;;;;;;;;143740;629;47021;-59
2021/06/15 05:30:29;;;;;;;6.50;2.65;;;;;;;;;;143739;638;46915;-60
2021/06/15 05:32:57;;;;;;;5.87;2.90;;;;;;;;;;143745;566;45020;-59
2021/06/15 05:35:24;;;;;;;5.05;2.92;;;;;;;;;;143745;604;46021;-59
2021/06/15 05:37:51;;;;;;;5.15;2.75;;;;;;;;;;143740;640;47020;-59
2021/06/15 05:40:19;;;;;;;4.00;2.87;;;;;;;;;;143740;586;47010;-59
2021/06/15 05:42:46;;;;;;;5.40;2.62;;;;;;;;;;143742;569;45021;-59
2021/06/15 05:45:13;;;;;;;7.70;3.28;;;;;;;;;;143744;565;45020;-59
2021/06/15 05:47:41;;;;;;;6.97;3.60;;;;;;;;;;143740;593;47022;-59
2021/06/15 05:50:08;;;;;;;6.37;3.10;;;;;;;;;;143739;593;47010;-58
2021/06/15 05:52:35;;;;;;;9.18;3.55;;;;;;;;;;143740;597;46020;-59
2021/06/15 05:55:03;;;;;;;8.90;3.40;;;;;;;;;;143743;584;46012;-61
2021/06/15 05:57:31;;;;;;;9.27;3.20;;;;;;;;;;143739;619;47021;-58
2021/06/15 06:00:01;;;;;;;6.03;3.30;;;;;;;;;;143740;630;47010;-59
2021/06/15 06:02:35;;;;;;;8.35;3.45;;;;;;;;;;143741;604;45020;-60
2021/06/15 06:08:04;;;;;;;8.52;3.30;;;;;;;;;;143744;585;45021;-59
2021/06/15 06:10:35;;;;;;;8.73;4.47;;;;;;;;;;143742;617;45914;-60
2021/06/15 06:13:04;;;;;;;11.75;4.47;;;;;;;;;;143743;626;45021;-60
2021/06/15 06:15:31;;;;;;;11.38;3.58;;;;;;;;;;143744;593;45020;-60
2021/06/15 06:18:06;;;;;;;9.40;3.85;;;;;;;;;;143742;664;47021;-60
2021/06/15 06:20:34;;;;;;;12.40;3.30;;;;;;;;;;143739;564;47010;-59
2021/06/15 06:23:01;;;;;;;10.30;3.47;;;;;;;;;;143742;671;45020;-59
2021/06/15 06:25:28;;;;;;;6.95;3.10;;;;;;;;;;143746;742;45021;-59
2021/06/15 06:27:56;;;;;;;9.18;4.37;;;;;;;;;;143740;615;47020;-59
2021/06/15 06:30:23;;;;;;;8.15;3.42;;;;;;;;;;143742;590;46010;-59
2021/06/15 06:32:51;;;;;;;5.30;3.40;;;;;;;;;;143744;567;45020;-59
2021/06/15 06:35:18;;;;;;;4.93;2.62;;;;;;;;;;143744;615;46021;-59
2021/06/15 06:37:45;;;;;;;6.80;2.80;;;;;;;;;;143741;658;47022;-59
2021/06/15 06:40:13;;;;;;;5.82;2.00;;;;;;;;;;143741;615;46010;-59
2021/06/15 06:42:40;;;;;;;5.47;2.83;;;;;;;;;;143742;627;45021;-59
2021/06/15 06:45:08;;;;;;;7.50;2.85;;;;;;;;;;143745;580;45020;-59
2021/06/15 06:47:35;;;;;;;9.57;3.10;;;;;;;;;;143740;608;47021;-59
2021/06/15 06:50:02;;;;;;;9.20;2.95;;;;;;;;;;143740;606;47010;-60
2021/06/15 06:52:30;;;;;;;6.25;2.35;;;;;;;;;;143743;595;45020;-59
2021/06/15 06:54:57;;;;;;;4.75;2.53;;;;;;;;;;143746;643;45021;-59
2021/06/15 06:57:29;;;;;;;3.80;2.40;;;;;;;;;;143740;600;47023;-59
2021/06/15 06:59:56;;;;;;;9.50;2.37;;;;;;;;;;143739;640;47010;-60
2021/06/15 07:02:23;;;;;;;5.95;3.00;;;;;;;;;;143743;592;45021;-59
2021/06/15 07:04:50;;;;;;;5.72;2.67;;;;;;;;;;143745;584;45021;-59
2021/06/15 07:07:17;;;;;;;6.03;2.85;;;;;;;;;;143740;569;47022;-59
2021/06/15 07:09:44;;;;;;;5.90;2.47;;;;;;;;;;143742;558;46010;-60
2021/06/15 07:12:11;;;;;;;4.43;2.35;;;;;;;;;;143745;618;45021;-59
2021/06/15 07:14:38;;;;;;;4.90;2.50;;;;;;;;;;143746;594;45020;-61
2021/06/15 07:17:05;;;;;;;5.68;2.62;;;;;;;;;;143741;571;47022;-59
2021/06/15 07:19:32;;;;;;;3.97;2.33;;;;;;;;;;143743;710;46011;-59
2021/06/15 07:22:00;;;;;;;4.05;2.50;;;;;;;;;;143744;582;45020;-59
2021/06/15 07:24:26;;;;;;;5.87;2.75;;;;;;;;;;143747;583;45020;-58
2021/06/15 07:26:53;;;;;;;6.12;3.20;;;;;;;;;;143738;586;50021;-59
2021/06/15 07:29:20;;;;;;;4.62;2.92;;;;;;;;;;143740;634;47010;-59
2021/06/15 07:31:48;;;;;;;5.90;3.05;;;;;;;;;;143745;580;45020;-59
2021/06/15 07:34:15;;;;;;;5.65;2.40;;;;;;;;;;143745;629;45021;-59
2021/06/15 07:36:42;;;;;;;5.80;2.50;;;;;;;;;;143740;574;47022;-59
2021/06/15 07:39:09;;;;;;;12.40;3.03;;;;;;;;;;143743;618;46010;-59
2021/06/15 07:41:38;;;;;;;5.53;2.65;;;;;;;;;;143743;565;45021;-59
2021/06/15 07:44:05;;;;;;;5.32;2.45;;;;;;;;;;143747;631;46020;-59
2021/06/15 07:46:33;;;;;;;3.92;2.65;;;;;;;;;;143743;610;47020;-59
2021/06/15 07:49:00;;;;;;;9.85;3.30;;;;;;;;;;143742;606;46010;-59
2021/06/15 07:51:27;;;;;;;3.83;2.62;;;;;;;;;;143742;573;45020;-59
2021/06/15 07:53:55;;;;;;;7.35;3.40;;;;;;;;;;143746;571;45027;-60
2021/06/15 07:56:24;;;;;;;10.75;4.18;;;;;;;;;;143742;614;47023;-60
2021/06/15 07:58:51;;;;;;;6.87;4.65;;;;;;;;;;143742;603;46010;-60
2021/06/15 08:01:18;;;;;;;7.03;3.80;;;;;;;;;;143745;705;45020;-61
2021/06/15 08:03:45;;;;;;;4.18;2.78;;;;;;;;;;143746;564;45021;-60
2021/06/15 08:06:12;;;;;;;4.95;3.35;;;;;;;;;;143741;600;47020;-60
2021/06/15 08:08:39;;;;;;;5.93;3.08;;;;;;;;;;143741;565;47010;-58
2021/06/15 08:11:06;;;;;;;8.50;3.92;;;;;;;;;;143745;564;45021;-57
2021/06/15 08:13:33;;;;;;;10.32;4.97;;;;;;;;;;143746;605;46020;-57
2021/06/15 08:16:00;;;;;;;6.10;4.18;;;;;;;;;;143741;573;48020;-57
2021/06/15 08:18:27;;;;;;;5.90;2.85;;;;;;;;;;143741;585;47011;-57
2021/06/15 08:20:54;;;;;;;10.48;4.43;;;;;;;;;;143746;614;45020;-57
2021/06/15 08:23:23;;;;;;;8.93;4.20;;;;;;;;;;143745;685;46020;-58
2021/06/15 08:25:51;;;;;;;5.45;3.42;;;;;;;;;;143744;604;47021;-58
2021/06/15 08:28:18;;;;;;;7.65;4.25;;;;;;;;;;143742;592;47010;-57
2021/06/15 08:30:45;;;;;;;6.47;3.45;;;;;;;;;;143743;608;45020;-57
2021/06/15 08:33:12;;;;;;;4.68;3.17;;;;;;;;;;143747;592;45021;-57
2021/06/15 08:35:39;;;;;;;7.95;3.42;;;;;;;;;;143740;649;47022;-57
2021/06/15 08:38:06;;;;;;;5.82;3.17;;;;;;;;;;143742;588;47010;-57
2021/06/15 08:40:33;;;;;;;4.12;2.70;;;;;;;;;;143744;580;45910;-58
2021/06/15 08:43:01;;;;;;;6.20;3.40;;;;;;;;;;143746;591;45020;-57
2021/06/15 08:45:28;;;;;;;5.53;3.15;;;;;;;;;;143743;569;47020;-57
2021/06/15 08:47:56;;;;;;;6.40;3.60;;;;;;;;;;143742;674;46010;-57
2021/06/15 08:50:27;;;;;;;4.60;2.55;;;;;;;;;;143743;665;45021;-57
2021/06/15 08:52:54;;;;;;;7.32;2.90;;;;;;;;;;143747;633;45020;-58
2021/06/15 08:55:26;;;;;;;4.80;2.42;;;;;;;;;;143741;633;47020;-58
2021/06/15 08:58:22;;;;;;;3.62;2.65;;;;;;;;;;143742;581;46010;-57
2021/06/15 09:00:49;;;;;;;5.40;4.00;;;;;;;;;;143743;617;46010;-58
2021/06/15 09:03:16;;;;;;;5.65;4.05;;;;;;;;;;143746;715;45021;-58
2021/06/15 09:05:44;;;;;;;7.37;3.10;;;;;;;;;;143740;651;47020;-58
2021/06/15 09:08:14;;;;;;;5.35;3.17;;;;;;;;;;143743;585;47010;-57
2021/06/15 09:10:46;;;;;;;6.12;3.55;;;;;;;;;;143745;601;45021;-58
2021/06/15 09:13:36;;;;;;;8.07;3.42;;;;;;;;;;143747;572;46020;-58
2021/06/15 09:16:37;;;;;;;3.95;2.60;;;;;;;;;;143743;724;47022;-58
2021/06/15 09:19:19;;;;;;;4.78;2.30;;;;;;;;;;143742;572;46011;-57
2021/06/15 09:21:46;;;;;;;2.62;2.25;;;;;;;;;;143743;602;46011;-57
2021/06/15 09:24:23;;;;;;;4.30;2.72;;;;;;;;;;143742;603;46020;-57
2021/06/15 09:27:20;;;;;;;3.12;2.28;;;;;;;;;;143743;577;47020;-57
2021/06/15 09:29:52;;;;;;;4.12;2.62;;;;;;;;;;143742;569;46010;-57
2021/06/15 09:32:25;;;;;;;6.93;3.00;;;;;;;;;;143743;609;45912;-57
2021/06/15 09:35:04;;;;;;;4.85;2.90;;;;;;;;;;143746;591;45021;-57
2021/06/15 09:37:36;;;;;;;12.55;3.33;;;;;;;;;;143742;622;47022;-57
2021/06/15 09:40:29;;;;;;;5.93;2.90;;;;;;;;;;143735;570;47011;-57
2021/06/15 09:43:03;;;;;;;7.22;3.15;;;;;;;;;;143742;663;45020;-60
2021/06/15 09:45:38;;;;;;;4.07;3.05;;;;;;;;;;143748;576;45020;-57
2021/06/15 09:48:29;;;;;;;6.00;2.47;;;;;;;;;;143743;648;47021;-57
2021/06/15 09:51:02;;;;;;;6.78;2.58;;;;;;;;;;143739;569;47010;-57
2021/06/15 09:53:34;;;;;;;3.45;2.45;;;;;;;;;;143745;585;45020;-59
2021/06/15 09:56:04;;;;;;;5.07;2.70;;;;;;;;;;143745;607;45021;-58
2021/06/15 09:58:50;;;;;;;5.60;2.92;;;;;;;;;;143744;585;46020;-57
2021/06/15 10:01:28;;;;;;;4.20;2.87;;;;;;;;;;143737;632;46918;-58
2021/06/15 10:04:17;;;;;;;6.12;2.83;;;;;;;;;;143742;580;45912;-58
2021/06/15 10:06:52;;;;;;;7.95;3.00;;;;;;;;;;143746;574;45020;-57
2021/06/15 10:09:35;;;;;;;4.35;2.92;;;;;;;;;;143742;633;47022;-58
2021/06/15 10:12:08;;;;;;;9.38;3.87;;;;;;;;;;143743;611;46029;-57
2021/06/15 10:14:37;;;;;;;5.55;3.78;;;;;;;;;;143741;595;47020;-57
2021/06/15 10:17:05;;;;;;;6.10;3.80;;;;;;;;;;143746;570;46020;-57
2021/06/15 10:19:32;;;;;;;9.90;4.10;;;;;;;;;;143741;670;47023;-57
2021/06/15 10:21:59;;;;;;;4.70;2.97;;;;;;;;;;143741;602;47010;-58
2021/06/15 10:24:26;;;;;;;4.00;3.00;;;;;;;;;;143742;587;45912;-57
2021/06/15 10:26:54;;;;;;;6.70;4.10;;;;;;;;;;143744;608;46020;-57
2021/06/15 10:29:21;;;;;;;6.82;4.12;;;;;;;;;;143741;590;47020;-56
2021/06/15 10:31:52;;;;;;;5.37;2.97;;;;;;;;;;143738;605;47010;-59
2021/06/15 10:34:51;;;;;;;8.48;3.85;;;;;;;;;;143744;645;45911;-59
2021/06/15 10:37:52;;;;;;;8.00;3.10;;;;;;;;;;143747;623;46020;-57
2021/06/15 10:40:40;;;;;;;7.97;4.35;;;;;;;;;;143739;592;47024;-57
2021/06/15 10:43:17;;;;;;;7.47;4.55;;;;;;;;;;143742;576;46010;-58
2021/06/15 10:45:51;;;;;;;6.93;3.90;;;;;;;;;;143744;599;45020;-57
2021/06/15 10:48:31;;;;;;;3.60;2.70;;;;;;;;;;143746;587;45021;-56
2021/06/15 10:51:01;;;;;;;7.22;3.95;;;;;;;;;;143742;588;47022;-57
2021/06/15 10:53:41;;;;;;;5.00;2.55;;;;;;;;;;143742;570;46025;-57
2021/06/15 10:56:10;;;;;;;6.40;3.08;;;;;;;;;;143742;654;45021;-57
2021/06/15 10:58:58;;;;;;;6.87;2.95;;;;;;;;;;143747;600;45020;-59
2021/06/15 11:01:31;;;;;;;4.87;3.65;;;;;;;;;;143738;573;47024;-57
2021/06/15 11:04:09;;;;;;;3.65;3.12;;;;;;;;;;143740;597;47010;-57
2021/06/15 11:06:44;;;;;;;4.55;3.35;;;;;;;;;;143742;607;45020;-58
2021/06/15 11:09:24;;;;;;;4.80;3.35;;;;;;;;;;143745;579;45021;-56
2021/06/15 11:12:20;;;;;;;5.32;3.00;;;;;;;;;;143741;577;47025;-56
2021/06/15 11:15:12;;;;;;;6.05;3.17;;;;;;;;;;143740;563;47010;-57
2021/06/15 11:17:55;;;;;;;5.65;3.47;;;;;;;;;;143742;604;46012;-57
2021/06/15 11:20:27;;;;;;;5.05;3.65;;;;;;;;;;143747;607;46020;-57
2021/06/15 11:23:24;;;;;;;3.20;2.40;;;;;;;;;;143742;569;47020;-56
2021/06/15 11:26:12;;;;;;;4.55;2.67;;;;;;;;;;143742;577;46025;-55
2021/06/15 11:28:57;;;;;;;5.22;2.58;;;;;;;;;;143745;602;45020;-55
2021/06/15 11:31:28;;;;;;;7.30;2.75;;;;;;;;;;143747;641;45021;-56
2021/06/15 11:34:17;;;;;;;5.15;3.30;;;;;;;;;;143739;611;49020;-56
2021/06/15 11:36:55;;;;;;;3.37;2.42;;;;;;;;;;143741;623;47010;-56
2021/06/15 11:39:30;;;;;;;6.18;2.40;;;;;;;;;;143742;587;45021;-55
2021/06/15 11:42:20;;;;;;;4.68;2.28;;;;;;;;;;143745;596;45020;-55
2021/06/15 11:45:33;;;;;;;3.08;2.12;;;;;;;;;;143742;611;47020;-54
2021/06/15 11:48:34;;;;;;;5.25;2.60;;;;;;;;;;143741;574;46011;-54
2021/06/15 11:51:07;;;;;;;5.62;2.20;;;;;;;;;;143742;569;45020;-54
2021/06/15 11:53:37;;;;;;;4.97;2.42;;;;;;;;;;143745;601;45021;-54
2021/06/15 11:56:06;;;;;;;4.32;2.05;;;;;;;;;;143740;651;47020;-54
2021/06/15 11:58:35;;;;;;;2.53;1.98;;;;;;;;;;143739;612;46010;-55
2021/06/15 12:01:07;;;;;;;4.37;2.83;;;;;;;;;;143741;607;45020;-54
2021/06/15 12:03:44;;;;;;;6.95;2.85;;;;;;;;;;143744;575;46021;-55
2021/06/15 12:06:15;;;;;;;5.68;3.10;;;;;;;;;;143739;588;47022;-54
2021/06/15 12:08:44;;;;;;;4.32;2.67;;;;;;;;;;143741;567;46010;-54
2021/06/15 12:11:14;;;;;;;3.25;2.00;;;;;;;;;;143741;665;45021;-54
2021/06/15 12:13:43;;;;;;;7.00;2.60;;;;;;;;;;143742;618;46020;-55
2021/06/15 12:16:14;;;;;;;5.95;2.30;;;;;;;;;;143741;671;47021;-54
2021/06/15 12:18:52;;;;;;;5.90;2.08;;;;;;;;;;143741;650;46024;-54
2021/06/15 12:21:24;;;;;;;5.70;2.75;;;;;;;;;;143743;590;45020;-55
2021/06/15 12:23:58;;;;;;;2.95;2.37;;;;;;;;;;143744;567;45021;-55
2021/06/15 12:26:36;;;;;;;3.25;2.22;;;;;;;;;;143739;564;47023;-55
2021/06/15 12:29:10;;;;;;;3.70;1.83;;;;;;;;;;143742;582;46010;-54
2021/06/15 12:31:45;;;;;;;7.35;3.00;;;;;;;;;;143744;589;45021;-54
2021/06/15 12:34:16;;;;;;;6.25;3.30;;;;;;;;;;143743;654;46018;-54
2021/06/15 12:36:47;;;;;;;4.00;2.45;;;;;;;;;;143740;579;47020;-54
2021/06/15 12:39:17;;;;;;;4.85;2.30;;;;;;;;;;143740;720;46011;-55
2021/06/15 12:41:51;;;;;;;4.62;2.55;;;;;;;;;;143742;701;45020;-54
2021/06/15 12:44:24;;;;;;;4.40;2.70;;;;;;;;;;143743;592;46020;-54
2021/06/15 12:46:58;;;;;;;7.65;3.25;;;;;;;;;;143739;625;47021;-54
2021/06/15 12:49:25;;;;;;;5.10;2.47;;;;;;;;;;143734;685;47010;-55
2021/06/15 12:52:00;;;;;;;4.28;2.47;;;;;;;;;;143741;577;45020;-54
2021/06/15 12:54:42;;;;;;;4.20;2.30;;;;;;;;;;143743;570;46021;-54
2021/06/15 12:57:26;;;;;;;6.57;3.00;;;;;;;;;;143739;569;47020;-55
2021/06/15 13:00:02;;;;;;;4.20;2.50;;;;;;;;;;143738;579;47010;-54
2021/06/15 13:02:29;;;;;;;4.18;2.37;;;;;;;;;;143741;635;45021;-54
2021/06/15 13:05:04;;;;;;;6.35;2.72;;;;;;;;;;143744;566;45020;-54
2021/06/15 13:07:32;;;;;;;8.70;3.30;;;;;;;;;;143739;645;47022;-54
2021/06/15 13:10:14;;;;;;;4.72;3.03;;;;;;;;;;143731;577;47010;-54
2021/06/15 13:12:46;;;;;;;4.32;2.60;;;;;;;;;;143739;661;47020;-54
2021/06/15 13:15:16;;;;;;;6.05;2.80;;;;;;;;;;143745;586;45020;-54
2021/06/15 13:18:09;;;;;;;4.53;3.20;;;;;;;;;;143741;573;47020;-55
2021/06/15 13:20:37;;;;;;;5.32;2.90;;;;;;;;;;143739;593;47010;-54
2021/06/15 13:23:17;;;;;;;8.57;3.03;;;;;;;;;;143742;654;45021;-54
2021/06/15 13:25:44;;;;;;;7.03;3.35;;;;;;;;;;143745;740;45020;-55
2021/06/15 13:28:12;;;;;;;7.47;3.28;;;;;;;;;;143740;589;47020;-54
2021/06/15 13:30:41;;;;;;;5.05;2.60;;;;;;;;;;143737;573;47010;-55
2021/06/15 13:33:13;;;;;;;6.12;2.45;;;;;;;;;;143743;576;45020;-54
2021/06/15 13:35:51;;;;;;;5.82;3.15;;;;;;;;;;143744;583;45020;-54
2021/06/15 13:38:21;;;;;;;3.37;2.35;;;;;;;;;;143743;614;46048;-54
2021/06/15 13:41:04;;;;;;;6.00;3.15;;;;;;;;;;143739;620;47010;-54
2021/06/15 13:43:34;;;;;;;6.57;3.33;;;;;;;;;;143740;602;45020;-54
2021/06/15 13:46:10;;;;;;;3.47;2.58;;;;;;;;;;143744;571;45021;-54
2021/06/15 13:48:38;;;;;;;7.78;2.85;;;;;;;;;;143740;612;47022;-54
2021/06/15 13:51:09;;;;;;;8.95;4.03;;;;;;;;;;143740;593;46010;-54
2021/06/15 13:53:36;;;;;;;8.27;3.47;;;;;;;;;;143742;567;45021;-54
2021/06/15 13:56:03;;;;;;;9.88;3.92;;;;;;;;;;143744;642;45020;-54
2021/06/15 13:58:30;;;;;;;7.47;3.08;;;;;;;;;;143740;592;47020;-54
2021/06/15 14:00:57;;;;;;;6.35;3.22;;;;;;;;;;143741;579;47010;-54
2021/06/15 14:03:24;;;;;;;5.93;2.75;;;;;;;;;;143743;614;45020;-53
2021/06/15 14:05:51;;;;;;;8.95;3.47;;;;;;;;;;143744;574;46020;-55
2021/06/15 14:08:18;;;;;;;6.68;2.80;;;;;;;;;;143739;565;47022;-53
2021/06/15 14:10:46;;;;;;;5.93;2.80;;;;;;;;;;143738;607;46919;-54
2021/06/15 14:13:14;;;;;;;4.32;2.85;;;;;;;;;;143743;569;45020;-55
2021/06/15 14:15:41;;;;;;;5.40;3.05;;;;;;;;;;143743;583;46021;-54
2021/06/15 14:18:08;;;;;;;10.23;4.20;;;;;;;;;;143739;611;47023;-53
2021/06/15 14:20:35;;;;;;;5.28;2.72;;;;;;;;;;143741;577;46010;-54
2021/06/15 14:23:03;;;;;;;7.37;3.40;;;;;;;;;;143740;570;45021;-54
2021/06/15 14:25:32;;;;;;;7.30;3.30;;;;;;;;;;143743;578;46020;-54
2021/06/15 14:27:59;;;;;;;3.37;2.80;;;;;;;;;;143740;601;47020;-53
2021/06/15 14:30:28;;;;;;;8.63;3.40;;;;;;;;;;143740;570;47010;-53
2021/06/15 14:32:56;;;;;;;5.82;3.10;;;;;;;;;;143739;582;45911;-53
2021/06/15 14:35:23;;;;;;;5.35;2.85;;;;;;;;;;143744;573;45020;-54
2021/06/15 14:37:51;;;;;;;3.83;2.50;;;;;;;;;;143739;581;47022;-54
2021/06/15 14:40:19;;;;;;;5.78;2.83;;;;;;;;;;143741;615;46010;-54
2021/06/15 14:42:47;;;;;;;4.55;2.80;;;;;;;;;;143740;594;45021;-54
2021/06/15 14:45:16;;;;;;;5.47;2.58;;;;;;;;;;143744;593;45021;-53
2021/06/15 14:47:43;;;;;;;4.85;2.78;;;;;;;;;;143740;570;47020;-53
2021/06/15 14:50:11;;;;;;;6.90;3.03;;;;;;;;;;143737;581;47010;-53
2021/06/15 14:52:37;;;;;;;4.85;2.80;;;;;;;;;;143742;564;46012;-53
2021/06/15 14:55:05;;;;;;;4.37;2.67;;;;;;;;;;143744;601;46020;-53
2021/06/15 14:57:33;;;;;;;5.28;2.62;;;;;;;;;;143739;571;47020;-53
2021/06/15 15:00:00;;;;;;;6.93;3.78;;;;;;;;;;143741;606;46017;-54
2021/06/15 15:02:27;;;;;;;6.45;3.03;;;;;;;;;;143743;619;45021;-54
2021/06/15 15:04:54;;;;;;;5.40;2.95;;;;;;;;;;143744;603;45020;-54
2021/06/15 15:07:21;;;;;;;4.57;2.85;;;;;;;;;;143739;600;47022;-53
2021/06/15 15:09:48;;;;;;;3.53;2.72;;;;;;;;;;143736;641;47010;-54
2021/06/15 15:12:15;;;;;;;6.12;2.17;;;;;;;;;;143742;613;45020;-54
2021/06/15 15:14:42;;;;;;;2.45;2.25;;;;;;;;;;143745;678;45021;-53
2021/06/15 15:17:12;;;;;;;4.03;2.78;;;;;;;;;;143739;576;47023;-54